sensor_id;sensor_type;location;lat;lon;timestamp;pressure;altitude;pressure_sealevel;temperature;humidity
78685;BME280;68002;52.310;6.990;2023-03-03T00:00:58;102112.38;;;1.44;83.50
78685;BME280;68002;52.310;6.990;2023-03-03T00:03:24;102147.66;;;1.66;83.57
78685;BME280;68002;52.310;6.990;2023-03-03T00:05:51;102093.34;;;1.35;83.93
78685;BME280;68002;52.310;6.990;2023-03-03T00:08:17;102099.50;;;1.35;83.84
78685;BME280;68002;52.310;6.990;2023-03-03T00:10:43;102106.09;;;1.48;83.25
78685;BME280;68002;52.310;6.990;2023-03-03T00:13:17;102139.84;;;1.63;83.60
78685;BME280;68002;52.310;6.990;2023-03-03T00:15:43;102131.41;;;1.54;84.05
78685;BME280;68002;52.310;6.990;2023-03-03T00:18:20;102113.19;;;1.46;84.09
78685;BME280;68002;52.310;6.990;2023-03-03T00:20:49;102122.81;;;1.47;83.33
78685;BME280;68002;52.310;6.990;2023-03-03T00:23:36;102134.06;;;1.52;84.01
78685;BME280;68002;52.310;6.990;2023-03-03T00:26:12;102128.69;;;1.55;84.08
78685;BME280;68002;52.310;6.990;2023-03-03T00:28:45;102119.97;;;1.53;83.25
78685;BME280;68002;52.310;6.990;2023-03-03T00:31:16;102148.47;;;1.68;83.55
78685;BME280;68002;52.310;6.990;2023-03-03T00:33:47;102141.56;;;1.64;83.06
78685;BME280;68002;52.310;6.990;2023-03-03T00:36:35;102148.50;;;1.67;83.03
78685;BME280;68002;52.310;6.990;2023-03-03T00:39:16;102132.03;;;1.60;83.30
78685;BME280;68002;52.310;6.990;2023-03-03T00:41:41;102112.88;;;1.55;83.26
78685;BME280;68002;52.310;6.990;2023-03-03T00:46:50;102124.94;;;1.62;82.72
78685;BME280;68002;52.310;6.990;2023-03-03T00:49:21;102136.81;;;1.75;83.23
78685;BME280;68002;52.310;6.990;2023-03-03T00:51:48;102137.69;;;1.74;83.23
78685;BME280;68002;52.310;6.990;2023-03-03T00:54:13;102122.13;;;1.67;82.54
78685;BME280;68002;52.310;6.990;2023-03-03T00:56:38;102128.28;;;1.67;83.31
78685;BME280;68002;52.310;6.990;2023-03-03T00:59:03;102118.22;;;1.52;83.56
78685;BME280;68002;52.310;6.990;2023-03-03T01:01:29;102128.47;;;1.61;83.78
78685;BME280;68002;52.310;6.990;2023-03-03T01:03:54;102136.06;;;1.72;84.00
78685;BME280;68002;52.310;6.990;2023-03-03T01:06:19;102103.28;;;1.53;84.08
78685;BME280;68002;52.310;6.990;2023-03-03T01:08:44;102127.41;;;1.67;83.08
78685;BME280;68002;52.310;6.990;2023-03-03T01:11:19;102111.81;;;1.61;83.35
78685;BME280;68002;52.310;6.990;2023-03-03T01:13:47;102139.44;;;1.75;83.75
78685;BME280;68002;52.310;6.990;2023-03-03T01:16:13;102121.38;;;1.63;83.38
78685;BME280;68002;52.310;6.990;2023-03-03T01:18:39;102112.50;;;1.66;83.46
78685;BME280;68002;52.310;6.990;2023-03-03T01:21:06;102127.88;;;1.79;83.42
78685;BME280;68002;52.310;6.990;2023-03-03T01:23:32;102120.81;;;1.80;82.61
78685;BME280;68002;52.310;6.990;2023-03-03T01:25:58;102130.47;;;1.81;83.71
78685;BME280;68002;52.310;6.990;2023-03-03T01:28:23;102116.41;;;1.80;83.09
78685;BME280;68002;52.310;6.990;2023-03-03T01:30:48;102130.53;;;1.79;83.03
78685;BME280;68002;52.310;6.990;2023-03-03T01:33:13;102121.03;;;1.74;83.12
78685;BME280;68002;52.310;6.990;2023-03-03T01:35:43;102092.50;;;1.60;83.22
78685;BME280;68002;52.310;6.990;2023-03-03T01:38:09;102126.19;;;1.77;82.84
78685;BME280;68002;52.310;6.990;2023-03-03T01:40:34;102107.84;;;1.74;83.26
78685;BME280;68002;52.310;6.990;2023-03-03T01:42:59;102095.13;;;1.60;82.64
78685;BME280;68002;52.310;6.990;2023-03-03T01:45:31;102125.44;;;1.73;82.29
78685;BME280;68002;52.310;6.990;2023-03-03T01:48:41;102127.78;;;1.82;82.93
78685;BME280;68002;52.310;6.990;2023-03-03T01:51:25;102139.94;;;1.86;83.28
78685;BME280;68002;52.310;6.990;2023-03-03T01:54:01;102145.97;;;1.90;82.55
78685;BME280;68002;52.310;6.990;2023-03-03T01:56:27;102124.13;;;1.86;82.57
78685;BME280;68002;52.310;6.990;2023-03-03T02:01:24;102117.53;;;1.73;82.89
78685;BME280;68002;52.310;6.990;2023-03-03T02:03:50;102133.53;;;1.93;82.73
78685;BME280;68002;52.310;6.990;2023-03-03T02:06:19;102098.25;;;1.71;82.82
78685;BME280;68002;52.310;6.990;2023-03-03T02:08:51;102112.06;;;1.79;82.15
78685;BME280;68002;52.310;6.990;2023-03-03T02:11:18;102072.56;;;1.52;82.63
78685;BME280;68002;52.310;6.990;2023-03-03T02:13:43;102128.25;;;1.93;82.57
78685;BME280;68002;52.310;6.990;2023-03-03T02:16:09;102135.47;;;1.88;83.23
78685;BME280;68002;52.310;6.990;2023-03-03T02:18:34;102108.50;;;1.80;82.64
78685;BME280;68002;52.310;6.990;2023-03-03T02:21:35;102132.72;;;1.91;82.29
78685;BME280;68002;52.310;6.990;2023-03-03T02:24:18;102130.97;;;1.92;82.52
78685;BME280;68002;52.310;6.990;2023-03-03T02:26:46;102137.06;;;1.94;81.89
78685;BME280;68002;52.310;6.990;2023-03-03T02:29:11;102135.19;;;1.96;81.90
78685;BME280;68002;52.310;6.990;2023-03-03T02:31:37;102125.63;;;1.93;82.09
78685;BME280;68002;52.310;6.990;2023-03-03T02:34:02;102100.59;;;1.80;82.03
78685;BME280;68002;52.310;6.990;2023-03-03T02:36:34;102121.97;;;1.97;81.39
78685;BME280;68002;52.310;6.990;2023-03-03T02:39:07;102106.47;;;1.88;82.22
78685;BME280;68002;52.310;6.990;2023-03-03T02:41:44;102101.50;;;1.79;82.61
78685;BME280;68002;52.310;6.990;2023-03-03T02:44:16;102132.53;;;1.97;82.34
78685;BME280;68002;52.310;6.990;2023-03-03T02:46:43;102110.94;;;1.86;82.04
78685;BME280;68002;52.310;6.990;2023-03-03T02:49:11;102116.03;;;1.91;82.09
78685;BME280;68002;52.310;6.990;2023-03-03T02:51:37;102116.78;;;1.94;82.46
78685;BME280;68002;52.310;6.990;2023-03-03T02:54:03;102100.44;;;1.85;82.52
78685;BME280;68002;52.310;6.990;2023-03-03T02:56:29;102120.91;;;2.03;82.16
78685;BME280;68002;52.310;6.990;2023-03-03T02:58:55;102127.00;;;2.03;82.50
78685;BME280;68002;52.310;6.990;2023-03-03T03:01:20;102103.66;;;1.93;82.33
78685;BME280;68002;52.310;6.990;2023-03-03T03:03:46;102120.91;;;2.03;82.04
78685;BME280;68002;52.310;6.990;2023-03-03T03:06:11;102115.72;;;2.00;82.47
78685;BME280;68002;52.310;6.990;2023-03-03T03:08:36;102097.75;;;1.86;82.47
78685;BME280;68002;52.310;6.990;2023-03-03T03:11:03;102118.28;;;2.01;82.68
78685;BME280;68002;52.310;6.990;2023-03-03T03:13:28;102125.19;;;2.05;82.85
78685;BME280;68002;52.310;6.990;2023-03-03T03:15:53;102109.59;;;1.99;82.89
78685;BME280;68002;52.310;6.990;2023-03-03T03:18:19;102104.34;;;1.98;82.17
78685;BME280;68002;52.310;6.990;2023-03-03T03:20:44;102115.50;;;2.06;82.90
78685;BME280;68002;52.310;6.990;2023-03-03T03:23:10;102100.94;;;1.94;82.91
78685;BME280;68002;52.310;6.990;2023-03-03T03:25:35;102123.34;;;2.08;82.74
78685;BME280;68002;52.310;6.990;2023-03-03T03:28:01;102116.25;;;2.10;81.94
78685;BME280;68002;52.310;6.990;2023-03-03T03:30:26;102099.81;;;2.01;82.67
78685;BME280;68002;52.310;6.990;2023-03-03T03:32:51;102112.97;;;2.03;82.98
78685;BME280;68002;52.310;6.990;2023-03-03T03:35:16;102120.78;;;2.06;83.15
78685;BME280;68002;52.310;6.990;2023-03-03T03:37:42;102109.78;;;1.93;83.62
78685;BME280;68002;52.310;6.990;2023-03-03T03:40:08;102122.78;;;1.99;83.43
78685;BME280;68002;52.310;6.990;2023-03-03T03:42:33;102122.06;;;1.94;82.64
78685;BME280;68002;52.310;6.990;2023-03-03T03:44:59;102135.75;;;2.05;83.12
78685;BME280;68002;52.310;6.990;2023-03-03T03:47:24;102131.97;;;2.13;82.78
78685;BME280;68002;52.310;6.990;2023-03-03T03:49:49;102093.28;;;1.88;82.75
78685;BME280;68002;52.310;6.990;2023-03-03T03:52:14;102125.09;;;2.09;82.63
78685;BME280;68002;52.310;6.990;2023-03-03T03:54:40;102135.38;;;2.16;82.30
78685;BME280;68002;52.310;6.990;2023-03-03T03:57:05;102140.47;;;2.21;83.11
78685;BME280;68002;52.310;6.990;2023-03-03T03:59:30;102114.69;;;2.04;82.28
78685;BME280;68002;52.310;6.990;2023-03-03T04:01:55;102125.03;;;2.10;82.51
78685;BME280;68002;52.310;6.990;2023-03-03T04:04:21;102111.94;;;2.07;83.29
78685;BME280;68002;52.310;6.990;2023-03-03T04:06:46;102099.06;;;1.98;83.09
78685;BME280;68002;52.310;6.990;2023-03-03T04:09:11;102106.94;;;1.99;83.31
78685;BME280;68002;52.310;6.990;2023-03-03T04:11:36;102134.34;;;2.20;83.06
78685;BME280;68002;52.310;6.990;2023-03-03T04:14:02;102117.19;;;2.09;83.50
78685;BME280;68002;52.310;6.990;2023-03-03T04:16:27;102120.97;;;2.00;83.25
78685;BME280;68002;52.310;6.990;2023-03-03T04:18:52;102104.94;;;2.06;83.52
78685;BME280;68002;52.310;6.990;2023-03-03T04:21:17;102096.53;;;1.95;83.84
78685;BME280;68002;52.310;6.990;2023-03-03T04:23:42;102109.53;;;2.01;83.74
78685;BME280;68002;52.310;6.990;2023-03-03T04:26:08;102125.78;;;2.14;83.38
78685;BME280;68002;52.310;6.990;2023-03-03T04:28:34;102140.47;;;2.21;82.54
78685;BME280;68002;52.310;6.990;2023-03-03T04:30:59;102113.63;;;2.10;82.89
78685;BME280;68002;52.310;6.990;2023-03-03T04:33:24;102130.03;;;2.18;82.82
78685;BME280;68002;52.310;6.990;2023-03-03T04:35:49;102143.94;;;2.23;82.66
78685;BME280;68002;52.310;6.990;2023-03-03T04:38:14;102108.81;;;1.96;83.02
78685;BME280;68002;52.310;6.990;2023-03-03T04:40:40;102123.47;;;2.04;82.70
78685;BME280;68002;52.310;6.990;2023-03-03T04:43:06;102134.41;;;2.19;82.60
78685;BME280;68002;52.310;6.990;2023-03-03T04:45:31;102105.28;;;1.97;82.54
78685;BME280;68002;52.310;6.990;2023-03-03T04:47:56;102134.91;;;2.05;82.90
78685;BME280;68002;52.310;6.990;2023-03-03T04:50:21;102136.56;;;2.08;83.19
78685;BME280;68002;52.310;6.990;2023-03-03T04:52:46;102105.41;;;1.92;82.76
78685;BME280;68002;52.310;6.990;2023-03-03T04:55:12;102135.03;;;2.00;82.86
78685;BME280;68002;52.310;6.990;2023-03-03T04:57:37;102103.66;;;1.93;83.10
78685;BME280;68002;52.310;6.990;2023-03-03T05:00:03;102097.81;;;1.83;82.29
78685;BME280;68002;52.310;6.990;2023-03-03T05:02:28;102115.75;;;1.98;82.51
78685;BME280;68002;52.310;6.990;2023-03-03T05:04:53;102112.59;;;1.89;82.52
78685;BME280;68002;52.310;6.990;2023-03-03T05:07:19;102092.59;;;1.82;82.69
78685;BME280;68002;52.310;6.990;2023-03-03T05:09:44;102106.47;;;1.88;82.74
78685;BME280;68002;52.310;6.990;2023-03-03T05:12:09;102079.25;;;1.62;82.05
78685;BME280;68002;52.310;6.990;2023-03-03T05:14:34;102139.50;;;1.98;82.60
78685;BME280;68002;52.310;6.990;2023-03-03T05:16:59;102125.78;;;1.89;82.99
78685;BME280;68002;52.310;6.990;2023-03-03T05:19:25;102124.25;;;1.82;82.65
78685;BME280;68002;52.310;6.990;2023-03-03T05:21:50;102131.22;;;1.84;82.71
78685;BME280;68002;52.310;6.990;2023-03-03T05:24:15;102140.19;;;1.79;82.57
78685;BME280;68002;52.310;6.990;2023-03-03T05:26:41;102155.66;;;1.89;82.80
78685;BME280;68002;52.310;6.990;2023-03-03T05:29:07;102156.63;;;1.87;82.86
78685;BME280;68002;52.310;6.990;2023-03-03T05:31:32;102107.50;;;1.58;82.90
78685;BME280;68002;52.310;6.990;2023-03-03T05:33:58;102170.63;;;1.89;82.51
78685;BME280;68002;52.310;6.990;2023-03-03T05:36:23;102171.44;;;1.91;82.78
78685;BME280;68002;52.310;6.990;2023-03-03T05:38:49;102165.41;;;1.87;83.19
78685;BME280;68002;52.310;6.990;2023-03-03T05:41:14;102143.16;;;1.70;83.25
78685;BME280;68002;52.310;6.990;2023-03-03T05:43:39;102141.28;;;1.73;82.32
78685;BME280;68002;52.310;6.990;2023-03-03T05:46:05;102142.16;;;1.72;82.71
78685;BME280;68002;52.310;6.990;2023-03-03T05:48:30;102125.75;;;1.64;82.98
78685;BME280;68002;52.310;6.990;2023-03-03T05:50:59;102161.38;;;1.76;82.93
78685;BME280;68002;52.310;6.990;2023-03-03T05:53:26;102142.41;;;1.66;83.00
78685;BME280;68002;52.310;6.990;2023-03-03T05:55:51;102160.44;;;1.78;83.08
78685;BME280;68002;52.310;6.990;2023-03-03T05:58:16;102153.53;;;1.74;83.09
78685;BME280;68002;52.310;6.990;2023-03-03T06:00:41;102126.13;;;1.54;82.68
78685;BME280;68002;52.310;6.990;2023-03-03T06:03:07;102167.53;;;1.76;83.11
78685;BME280;68002;52.310;6.990;2023-03-03T06:05:32;102161.44;;;1.74;82.50
78685;BME280;68002;52.310;6.990;2023-03-03T06:07:57;102147.63;;;1.68;83.03
78685;BME280;68002;52.310;6.990;2023-03-03T06:10:24;102131.22;;;1.58;83.42
78685;BME280;68002;52.310;6.990;2023-03-03T06:12:49;102151.19;;;1.65;83.23
78685;BME280;68002;52.310;6.990;2023-03-03T06:15:14;102152.19;;;1.63;82.94
78685;BME280;68002;52.310;6.990;2023-03-03T06:17:39;102156.41;;;1.68;83.52
78685;BME280;68002;52.310;6.990;2023-03-03T06:20:05;102157.41;;;1.64;83.88
78685;BME280;68002;52.310;6.990;2023-03-03T06:22:31;102154.66;;;1.67;83.44
78685;BME280;68002;52.310;6.990;2023-03-03T06:24:56;102138.13;;;1.62;83.53
78685;BME280;68002;52.310;6.990;2023-03-03T06:27:21;102149.31;;;1.69;83.11
78685;BME280;68002;52.310;6.990;2023-03-03T06:29:47;102137.25;;;1.62;83.04
78685;BME280;68002;52.310;6.990;2023-03-03T06:32:12;102154.34;;;1.76;83.25
78685;BME280;68002;52.310;6.990;2023-03-03T06:34:37;102150.81;;;1.77;82.95
78685;BME280;68002;52.310;6.990;2023-03-03T06:37:02;102171.50;;;1.89;82.37
78685;BME280;68002;52.310;6.990;2023-03-03T06:39:28;102175.94;;;1.87;82.86
78685;BME280;68002;52.310;6.990;2023-03-03T06:41:53;102179.28;;;1.92;83.15
78685;BME280;68002;52.310;6.990;2023-03-03T06:44:18;102153.53;;;1.74;83.55
78685;BME280;68002;52.310;6.990;2023-03-03T06:46:43;102174.00;;;1.92;83.44
78685;BME280;68002;52.310;6.990;2023-03-03T06:49:09;102180.91;;;1.96;82.74
78685;BME280;68002;52.310;6.990;2023-03-03T06:51:36;102175.75;;;1.93;82.82
78685;BME280;68002;52.310;6.990;2023-03-03T06:54:10;102189.69;;;1.97;83.32
78685;BME280;68002;52.310;6.990;2023-03-03T06:56:36;102180.34;;;1.87;84.16
78685;BME280;68002;52.310;6.990;2023-03-03T06:59:08;102173.47;;;1.83;84.22
78685;BME280;68002;52.310;6.990;2023-03-03T07:01:36;102195.69;;;2.02;83.30
78685;BME280;68002;52.310;6.990;2023-03-03T07:04:31;102196.66;;;1.99;83.96
78685;BME280;68002;52.310;6.990;2023-03-03T07:06:56;102192.28;;;1.98;83.57
78685;BME280;68002;52.310;6.990;2023-03-03T07:09:25;102193.91;;;2.02;83.17
78685;BME280;68002;52.310;6.990;2023-03-03T07:11:52;102185.19;;;2.00;83.77
78685;BME280;68002;52.310;6.990;2023-03-03T07:14:19;102199.00;;;2.09;83.53
78685;BME280;68002;52.310;6.990;2023-03-03T07:16:44;102177.25;;;2.00;83.63
78685;BME280;68002;52.310;6.990;2023-03-03T07:19:18;102210.56;;;2.04;83.46
78685;BME280;68002;52.310;6.990;2023-03-03T07:21:45;102204.28;;;2.09;82.81
78685;BME280;68002;52.310;6.990;2023-03-03T07:26:47;102215.63;;;2.11;82.51
78685;BME280;68002;52.310;6.990;2023-03-03T07:29:28;102223.31;;;2.17;83.03
78685;BME280;68002;52.310;6.990;2023-03-03T07:31:55;102210.44;;;2.08;83.60
78685;BME280;68002;52.310;6.990;2023-03-03T07:34:45;102240.09;;;2.16;83.60
78685;BME280;68002;52.310;6.990;2023-03-03T07:37:36;102242.56;;;2.20;83.19
78685;BME280;68002;52.310;6.990;2023-03-03T07:40:21;102205.41;;;2.00;83.37
78685;BME280;68002;52.310;6.990;2023-03-03T07:42:50;102189.53;;;2.01;83.04
78685;BME280;68002;52.310;6.990;2023-03-03T07:45:29;102239.84;;;2.23;83.47
78685;BME280;68002;52.310;6.990;2023-03-03T07:48:25;102243.81;;;2.35;82.92
78685;BME280;68002;52.310;6.990;2023-03-03T07:50:54;102241.22;;;2.33;83.80
78685;BME280;68002;52.310;6.990;2023-03-03T07:53:26;102255.13;;;2.38;83.25
78685;BME280;68002;52.310;6.990;2023-03-03T07:55:51;102253.34;;;2.39;83.80
78685;BME280;68002;52.310;6.990;2023-03-03T07:58:37;102247.19;;;2.40;83.41
78685;BME280;68002;52.310;6.990;2023-03-03T08:04:00;102250.91;;;2.33;83.18
78685;BME280;68002;52.310;6.990;2023-03-03T08:11:52;102270.50;;;2.52;82.63
78685;BME280;68002;52.310;6.990;2023-03-03T08:14:24;102268.69;;;2.54;83.58
78685;BME280;68002;52.310;6.990;2023-03-03T08:16:51;102246.25;;;2.41;83.00
78685;BME280;68002;52.310;6.990;2023-03-03T08:19:16;102240.91;;;2.42;83.20
78685;BME280;68002;52.310;6.990;2023-03-03T08:21:41;102253.63;;;2.56;83.23
78685;BME280;68002;52.310;6.990;2023-03-03T08:24:07;102242.31;;;2.52;82.46
78685;BME280;68002;52.310;6.990;2023-03-03T08:26:32;102225.00;;;2.44;82.83
78685;BME280;68002;52.310;6.990;2023-03-03T08:28:57;102266.25;;;2.72;82.45
78685;BME280;68002;52.310;6.990;2023-03-03T08:31:22;102266.81;;;2.80;82.26
78685;BME280;68002;52.310;6.990;2023-03-03T08:33:47;102259.63;;;2.85;81.91
78685;BME280;68002;52.310;6.990;2023-03-03T08:36:13;102250.41;;;2.72;81.36
78685;BME280;68002;52.310;6.990;2023-03-03T08:38:38;102257.25;;;2.78;81.64
78685;BME280;68002;52.310;6.990;2023-03-03T08:41:05;102276.03;;;2.93;81.94
78685;BME280;68002;52.310;6.990;2023-03-03T08:43:31;102247.09;;;2.90;81.71
78685;BME280;68002;52.310;6.990;2023-03-03T08:45:58;102252.25;;;2.93;81.51
78685;BME280;68002;52.310;6.990;2023-03-03T08:48:24;102224.66;;;2.77;81.85
78685;BME280;68002;52.310;6.990;2023-03-03T08:50:49;102220.78;;;2.87;81.17
78685;BME280;68002;52.310;6.990;2023-03-03T08:53:15;102235.84;;;3.08;81.65
78685;BME280;68002;52.310;6.990;2023-03-03T08:55:41;102255.13;;;3.34;81.61
78685;BME280;68002;52.310;6.990;2023-03-03T08:58:06;102263.81;;;3.37;80.68
78685;BME280;68002;52.310;6.990;2023-03-03T09:00:32;102240.50;;;3.25;80.48
78685;BME280;68002;52.310;6.990;2023-03-03T09:02:57;102245.56;;;3.31;80.84
78685;BME280;68002;52.310;6.990;2023-03-03T09:05:23;102267.91;;;3.46;80.84
78685;BME280;68002;52.310;6.990;2023-03-03T09:07:49;102281.59;;;3.55;80.58
78685;BME280;68002;52.310;6.990;2023-03-03T09:10:18;102257.38;;;3.44;79.68
78685;BME280;68002;52.310;6.990;2023-03-03T09:12:46;102275.72;;;3.70;80.01
78685;BME280;68002;52.310;6.990;2023-03-03T09:15:20;102280.47;;;3.62;79.73
78685;BME280;68002;52.310;6.990;2023-03-03T09:17:46;102211.63;;;3.42;79.19
78685;BME280;68002;52.310;6.990;2023-03-03T09:20:40;102280.41;;;3.85;78.56
78685;BME280;68002;52.310;6.990;2023-03-03T09:25:57;102266.50;;;4.02;78.16
78685;BME280;68002;52.310;6.990;2023-03-03T09:28:26;102240.09;;;4.00;77.31
78685;BME280;68002;52.310;6.990;2023-03-03T09:30:54;102276.44;;;4.39;78.04
78685;BME280;68002;52.310;6.990;2023-03-03T09:35:45;102272.59;;;4.46;77.60
78685;BME280;68002;52.310;6.990;2023-03-03T09:38:25;102277.00;;;4.45;75.55
78685;BME280;68002;52.310;6.990;2023-03-03T09:54:48;102281.47;;;5.61;73.91
78685;BME280;68002;52.310;6.990;2023-03-03T09:57:21;102281.91;;;5.70;73.90
78685;BME280;68002;52.310;6.990;2023-03-03T10:05:52;102264.91;;;5.93;73.48
78685;BME280;68002;52.310;6.990;2023-03-03T10:13:55;102281.00;;;7.73;70.66
78685;BME280;68002;52.310;6.990;2023-03-03T10:16:31;102277.84;;;8.59;69.99
78685;BME280;68002;52.310;6.990;2023-03-03T10:21:45;102272.72;;;9.54;63.00
78685;BME280;68002;52.310;6.990;2023-03-03T10:24:29;102272.06;;;9.37;63.42
78685;BME280;68002;52.310;6.990;2023-03-03T10:27:06;102285.16;;;9.13;60.56
78685;BME280;68002;52.310;6.990;2023-03-03T10:37:57;102289.75;;;8.06;60.60
78685;BME280;68002;52.310;6.990;2023-03-03T10:40:30;102249.72;;;7.46;61.86
78685;BME280;68002;52.310;6.990;2023-03-03T10:43:23;102281.53;;;7.95;64.87
78685;BME280;68002;52.310;6.990;2023-03-03T10:46:18;102272.34;;;8.46;60.00
78685;BME280;68002;52.310;6.990;2023-03-03T10:51:39;102269.00;;;9.97;61.29
78685;BME280;68002;52.310;6.990;2023-03-03T10:54:26;102274.38;;;10.63;56.80
78685;BME280;68002;52.310;6.990;2023-03-03T10:57:02;102275.13;;;11.66;58.09
78685;BME280;68002;52.310;6.990;2023-03-03T11:05:16;102256.59;;;12.68;48.93
78685;BME280;68002;52.310;6.990;2023-03-03T11:07:51;102225.78;;;12.96;47.09
78685;BME280;68002;52.310;6.990;2023-03-03T11:10:32;102262.03;;;12.90;48.53
78685;BME280;68002;52.310;6.990;2023-03-03T11:13:17;102229.59;;;13.27;46.10
78685;BME280;68002;52.310;6.990;2023-03-03T11:16:09;102246.16;;;13.87;48.09
78685;BME280;68002;52.310;6.990;2023-03-03T11:18:56;102246.25;;;14.80;44.59
78685;BME280;68002;52.310;6.990;2023-03-03T11:24:05;102247.25;;;15.30;42.80
78685;BME280;68002;52.310;6.990;2023-03-03T11:29:46;102238.34;;;15.09;40.75
78685;BME280;68002;52.310;6.990;2023-03-03T11:35:43;102232.13;;;14.67;39.33
78685;BME280;68002;52.310;6.990;2023-03-03T11:37:53;102225.06;;;14.03;42.30
78685;BME280;68002;52.310;6.990;2023-03-03T11:40:26;102230.25;;;13.84;42.12
78685;BME280;68002;52.310;6.990;2023-03-03T11:42:59;102201.88;;;13.91;40.32
78685;BME280;68002;52.310;6.990;2023-03-03T11:45:38;102234.78;;;13.83;41.38
78685;BME280;68002;52.310;6.990;2023-03-03T11:48:16;102225.25;;;14.22;40.85
78685;BME280;68002;52.310;6.990;2023-03-03T11:50:57;102218.13;;;14.94;39.24
78685;BME280;68002;52.310;6.990;2023-03-03T11:56:26;102223.06;;;15.49;37.33
78685;BME280;68002;52.310;6.990;2023-03-03T12:01:56;102197.78;;;16.09;37.48
78685;BME280;68002;52.310;6.990;2023-03-03T12:04:39;102207.25;;;15.84;36.77
78685;BME280;68002;52.310;6.990;2023-03-03T12:07:32;102219.88;;;15.65;37.72
78685;BME280;68002;52.310;6.990;2023-03-03T12:10:18;102203.28;;;15.09;36.57
78685;BME280;68002;52.310;6.990;2023-03-03T12:12:57;102209.97;;;15.14;37.28
78685;BME280;68002;52.310;6.990;2023-03-03T12:21:31;102203.75;;;13.68;39.00
78685;BME280;68002;52.310;6.990;2023-03-03T12:27:02;102184.13;;;12.79;41.26
78685;BME280;68002;52.310;6.990;2023-03-03T12:38:17;102197.81;;;12.98;41.50
78685;BME280;68002;52.310;6.990;2023-03-03T12:44:25;102184.84;;;11.90;42.97
78685;BME280;68002;52.310;6.990;2023-03-03T12:47:06;102200.13;;;11.41;43.12
78685;BME280;68002;52.310;6.990;2023-03-03T12:49:51;102201.03;;;11.03;44.55
78685;BME280;68002;52.310;6.990;2023-03-03T12:58:12;102194.22;;;10.10;48.31
78685;BME280;68002;52.310;6.990;2023-03-03T13:01:14;102192.28;;;9.85;48.35
78685;BME280;68002;52.310;6.990;2023-03-03T13:04:07;102168.91;;;9.62;48.77
78685;BME280;68002;52.310;6.990;2023-03-03T13:15:03;102172.81;;;9.83;48.33
78685;BME280;68002;52.310;6.990;2023-03-03T13:17:37;102170.47;;;9.79;48.21
78685;BME280;68002;52.310;6.990;2023-03-03T13:23:07;102179.03;;;9.57;48.57
78685;BME280;68002;52.310;6.990;2023-03-03T13:28:21;102184.38;;;9.57;48.83
78685;BME280;68002;52.310;6.990;2023-03-03T13:30:53;102156.63;;;9.19;49.51
78685;BME280;68002;52.310;6.990;2023-03-03T13:33:30;102156.94;;;9.00;50.06
78685;BME280;68002;52.310;6.990;2023-03-03T13:36:12;102156.06;;;8.72;50.92
78685;BME280;68002;52.310;6.990;2023-03-03T13:38:42;102161.22;;;8.61;50.91
78685;BME280;68002;52.310;6.990;2023-03-03T13:41:20;102173.81;;;8.73;51.34
78685;BME280;68002;52.310;6.990;2023-03-03T13:44:02;102168.28;;;8.76;51.67
78685;BME280;68002;52.310;6.990;2023-03-03T13:46:39;102172.59;;;8.78;51.15
78685;BME280;68002;52.310;6.990;2023-03-03T13:52:05;102166.34;;;8.50;51.42
78685;BME280;68002;52.310;6.990;2023-03-03T14:00:12;102152.94;;;8.51;50.80
78685;BME280;68002;52.310;6.990;2023-03-03T14:02:48;102158.19;;;8.67;50.51
78685;BME280;68002;52.310;6.990;2023-03-03T14:08:32;102131.13;;;8.45;50.87
78685;BME280;68002;52.310;6.990;2023-03-03T14:11:09;102152.84;;;8.39;51.17
78685;BME280;68002;52.310;6.990;2023-03-03T14:14:03;102147.50;;;8.39;52.18
78685;BME280;68002;52.310;6.990;2023-03-03T14:16:51;102125.72;;;8.17;51.93
78685;BME280;68002;52.310;6.990;2023-03-03T14:19:27;102155.09;;;8.31;53.61
78685;BME280;68002;52.310;6.990;2023-03-03T14:22:32;102151.31;;;8.35;53.03
78685;BME280;68002;52.310;6.990;2023-03-03T14:25:09;102139.97;;;8.31;53.52
78685;BME280;68002;52.310;6.990;2023-03-03T14:35:29;102142.84;;;8.12;54.85
78685;BME280;68002;52.310;6.990;2023-03-03T14:38:01;102138.78;;;7.91;55.84
78685;BME280;68002;52.310;6.990;2023-03-03T14:40:31;102111.06;;;7.80;57.76
78685;BME280;68002;52.310;6.990;2023-03-03T14:43:01;102128.94;;;7.78;58.09
78685;BME280;68002;52.310;6.990;2023-03-03T14:45:37;102120.22;;;7.60;58.02
78685;BME280;68002;52.310;6.990;2023-03-03T14:48:15;102143.63;;;7.69;58.04
78685;BME280;68002;52.310;6.990;2023-03-03T14:50:48;102081.44;;;7.41;58.03
78685;BME280;68002;52.310;6.990;2023-03-03T14:53:20;102124.59;;;7.61;58.06
78685;BME280;68002;52.310;6.990;2023-03-03T14:55:48;102112.34;;;7.43;58.16
78685;BME280;68002;52.310;6.990;2023-03-03T14:58:25;102129.69;;;7.50;58.84
78685;BME280;68002;52.310;6.990;2023-03-03T15:01:12;102121.50;;;7.53;58.50
78685;BME280;68002;52.310;6.990;2023-03-03T15:03:46;102127.59;;;7.55;58.92
78685;BME280;68002;52.310;6.990;2023-03-03T15:06:11;102106.84;;;7.46;58.48
78685;BME280;68002;52.310;6.990;2023-03-03T15:08:40;102109.69;;;7.43;58.81
78685;BME280;68002;52.310;6.990;2023-03-03T15:11:25;102113.97;;;7.46;58.51
78685;BME280;68002;52.310;6.990;2023-03-03T15:13:51;102122.09;;;7.58;57.93
78685;BME280;68002;52.310;6.990;2023-03-03T15:16:19;102128.09;;;7.62;58.31
78685;BME280;68002;52.310;6.990;2023-03-03T15:18:57;102107.19;;;7.56;57.41
78685;BME280;68002;52.310;6.990;2023-03-03T15:21:30;102076.47;;;7.35;57.09
78685;BME280;68002;52.310;6.990;2023-03-03T15:26:44;102097.22;;;7.44;57.05
78685;BME280;68002;52.310;6.990;2023-03-03T15:32:17;102107.00;;;7.59;55.83
78685;BME280;68002;52.310;6.990;2023-03-03T15:35:17;102096.63;;;7.54;55.25
78685;BME280;68002;52.310;6.990;2023-03-03T15:38:17;102077.31;;;7.51;54.71
78685;BME280;68002;52.310;6.990;2023-03-03T15:40:53;102085.34;;;7.49;55.13
78685;BME280;68002;52.310;6.990;2023-03-03T15:43:34;102090.28;;;7.41;55.44
78685;BME280;68002;52.310;6.990;2023-03-03T15:49:52;102098.38;;;7.40;55.44